Terminal Aerodrome Forecast
Issued by NWS Memphis, TN

Home | Current Version | Previous Version | Text Only | Print | Product List | Glossary On
Versions: 1 2 3 4 5 6 7 8 9 10 11 12 13 14
214
FTUS44 KMEG 100524
TAFMKL
TAF
KMKL 100524Z 1006/1106 31006KT P6SM FEW050
     FM101500 30010KT P6SM SCT045 BKN100
     FM110000 VRB03KT P6SM FEW045 BKN100
     FM110500 13005KT P6SM SCT100=

USA.gov is the U.S. government's official web portal to all federal, state and local government web resources and services.